Time;durP1;ratioP1;P1;durP2;ratioP2;P2;SDS_P1;SDS_P2;PMS_P1;PMS_P2;Temp;Humidity;BMP_temperature;BMP_pressure;BME280_temperature;BME280_humidity;BME280_pressure;Samples;Min_cycle;Max_cycle;Signal;HPM_P1;HPM_P2
2024/02/01 00:01:43;;;;;;;31.42;16.85;;;6.00;99.90;;;4.57;82.52;101341.25;5020757;28;20022;-86
2024/02/01 00:04:19;;;;;;;27.45;14.48;;;;;;;4.60;82.93;101346.41;4993156;28;20116;-86
2024/02/01 00:09:39;;;;;;;26.67;14.38;;;6.20;99.90;;;4.66;82.65;101330.69;4946073;28;20039;-85
2024/02/01 00:12:09;;;;;;;18.25;10.38;;;;;;;4.62;82.48;101321.19;4979934;23;20052;-86
2024/02/01 00:14:56;;;;;;;28.48;16.58;;;6.20;99.90;;;4.67;82.42;101322.88;5053276;28;20037;-84
2024/02/01 00:17:22;;;;;;;24.05;13.27;;;6.20;99.90;;;4.68;82.26;101324.56;5052022;28;20029;-84
2024/02/01 00:19:48;;;;;;;35.67;19.80;;;;;;;4.70;82.23;101317.59;5053600;28;20482;-84
2024/02/01 00:22:16;;;;;;;35.05;21.30;;;6.20;99.90;;;4.74;82.28;101308.00;5045242;28;20095;-84
2024/02/01 00:24:53;;;;;;;32.47;19.25;;;6.20;99.90;;;4.75;82.10;101306.25;5033938;28;20025;-84
2024/02/01 00:27:19;;;;;;;25.40;14.60;;;6.30;99.90;;;4.77;81.86;101307.09;5015706;28;20087;-82
2024/02/01 00:29:55;;;;;;;30.75;14.57;;;;;;;4.78;81.77;101307.06;5032744;28;20147;-84
2024/02/01 00:32:21;;;;;;;42.17;19.35;;;;;;;4.84;81.65;101293.94;5032803;28;20036;-83
2024/02/01 00:34:47;;;;;;;31.33;17.10;;;6.30;99.90;;;4.85;81.40;101289.59;5031532;28;20075;-84
2024/02/01 00:37:13;;;;;;;34.40;19.33;;;6.30;99.90;;;4.87;81.66;101296.50;5017113;28;20301;-84
2024/02/01 00:39:51;;;;;;;33.83;19.25;;;;;;;4.89;81.90;101299.94;5018210;28;20024;-85
2024/02/01 00:42:17;;;;;;;36.10;20.70;;;;;;;4.90;82.07;101299.09;5031914;28;20097;-85
2024/02/01 00:45:09;;;;;;;37.40;22.70;;;6.30;99.90;;;4.84;82.74;101288.72;5034685;28;20030;-85
2024/02/01 00:47:37;;;;;;;28.55;15.38;;;6.30;99.90;;;4.74;83.17;101287.13;5018210;28;20096;-85
2024/02/01 00:50:14;;;;;;;35.42;19.92;;;;;;;4.73;84.10;101288.88;5017837;28;20087;-84
2024/02/01 00:52:39;;;;;;;40.47;23.08;;;6.20;99.90;;;4.69;85.04;101281.97;5029911;28;20029;-84
2024/02/01 00:55:32;;;;;;;36.10;20.40;;;6.20;99.90;;;4.69;85.70;101286.34;5019567;28;20036;-85
2024/02/01 00:59:01;;;;;;;41.83;23.10;;;6.10;99.90;;;4.58;86.85;101273.44;5034924;28;20053;-86
2024/02/01 01:01:29;;;;;;;39.08;22.23;;;6.00;99.90;;;4.45;88.21;101261.41;4989800;28;20041;-87
2024/02/01 01:04:51;;;;;;;47.65;25.10;;;6.00;99.90;;;4.47;89.18;101259.66;4970095;28;20508;-87
2024/02/01 01:07:20;;;;;;;40.85;24.65;;;;;;;4.40;90.07;101244.97;4954926;29;20062;-87
2024/02/01 01:10:09;;;;;;;42.15;25.02;;;;;;;4.38;91.30;101244.97;4939316;29;20039;-86
2024/02/01 01:12:50;;;;;;;45.40;24.05;;;;;;;4.30;92.09;101232.06;5012201;23;20059;-85
2024/02/01 01:15:19;;;;;;;39.10;22.05;;;;;;;4.31;92.94;101233.75;5056621;28;20041;-86
2024/02/01 01:17:45;;;;;;;36.58;20.17;;;5.80;99.90;;;4.31;93.55;101227.69;5080034;22;20411;-79
2024/02/01 01:20:20;;;;;;;28.98;16.10;;;5.80;99.90;;;4.24;94.18;101226.06;5074181;28;20052;-79
2024/02/01 01:22:45;;;;;;;38.38;22.05;;;5.70;99.90;;;4.20;94.69;101219.16;5070534;28;20060;-79
2024/02/01 01:25:12;;;;;;;37.20;22.70;;;5.70;99.90;;;4.21;94.88;101226.06;5056599;28;20039;-79
2024/02/01 01:27:48;;;;;;;23.25;13.20;;;5.70;99.90;;;4.17;96.01;101220.06;5061864;28;20048;-79
2024/02/01 01:30:13;;;;;;;34.92;20.17;;;5.70;99.90;;;4.15;96.38;101220.94;5037518;28;20037;-79
2024/02/01 01:32:39;;;;;;;35.15;21.75;;;5.70;99.90;;;4.16;96.54;101217.47;5052854;28;20516;-79
2024/02/01 01:35:05;;;;;;;37.60;20.27;;;5.70;99.90;;;4.12;96.84;101214.03;5034961;28;20426;-79
2024/02/01 01:37:35;;;;;;;39.35;19.38;;;5.60;99.90;;;4.11;97.83;101204.50;5052821;28;20502;-79
2024/02/01 01:40:01;;;;;;;34.17;17.83;;;5.60;99.90;;;4.07;98.17;101205.41;5052846;28;20025;-78
2024/02/01 01:42:27;;;;;;;29.90;16.15;;;5.60;99.90;;;4.05;98.46;101202.81;5035341;28;20036;-80
2024/02/01 01:44:52;;;;;;;37.55;19.77;;;5.60;99.90;;;4.07;98.95;101192.38;5036973;28;20041;-79
2024/02/01 01:47:18;;;;;;;41.13;22.52;;;5.60;99.90;;;4.06;99.43;101196.72;5052831;28;20031;-79
2024/02/01 01:49:44;;;;;;;32.58;20.17;;;5.60;99.90;;;4.06;99.42;101193.25;5053693;28;20037;-80
2024/02/01 01:52:16;;;;;;;41.80;22.30;;;5.60;99.90;;;4.07;99.83;101195.84;5036819;28;20112;-79
2024/02/01 01:54:42;;;;;;;35.95;20.23;;;5.60;99.90;;;4.06;100.00;101201.94;5034976;28;20542;-78
2024/02/01 01:57:08;;;;;;;32.53;18.13;;;5.60;99.90;;;4.07;100.00;101192.38;5036258;28;20048;-80
2024/02/01 01:59:34;;;;;;;39.72;22.55;;;5.50;99.90;;;4.04;100.00;101185.47;5052751;28;20029;-79
2024/02/01 02:02:00;;;;;;;35.45;21.38;;;5.60;99.90;;;4.04;100.00;101189.78;5035907;28;20036;-79
2024/02/01 02:04:35;;;;;;;31.80;18.05;;;5.50;99.90;;;4.00;100.00;101185.53;5050924;28;20056;-80
2024/02/01 02:07:02;;;;;;;37.13;22.60;;;5.50;99.90;;;4.04;100.00;101188.06;5051585;28;20037;-79
2024/02/01 02:09:28;;;;;;;37.53;21.05;;;5.50;99.90;;;4.05;100.00;101183.72;5052608;28;20487;-79
2024/02/01 02:11:53;;;;;;;37.78;21.73;;;5.50;99.90;;;4.01;100.00;101184.63;5036746;28;20036;-79
2024/02/01 02:14:24;;;;;;;35.63;20.75;;;5.50;99.90;;;4.03;100.00;101173.31;5050371;28;20499;-79
2024/02/01 02:16:49;;;;;;;34.13;19.55;;;5.50;99.90;;;4.00;100.00;101170.75;5051943;28;20068;-80
2024/02/01 02:19:16;;;;;;;35.85;20.85;;;5.50;99.90;;;4.01;100.00;101162.03;5036543;28;20064;-80
2024/02/01 02:21:49;;;;;;;34.88;20.50;;;5.50;99.90;;;4.01;100.00;101159.44;5052910;28;20131;-79
2024/02/01 02:24:16;;;;;;;32.08;17.35;;;5.50;99.90;;;3.98;100.00;101153.41;5051839;28;20044;-79
2024/02/01 02:26:43;;;;;;;30.77;18.05;;;5.50;99.90;;;3.97;100.00;101159.50;5052062;28;20511;-79
2024/02/01 02:29:09;;;;;;;41.22;17.75;;;5.50;99.90;;;3.99;100.00;101155.13;5034458;28;20487;-79
2024/02/01 02:31:35;;;;;;;34.08;21.00;;;5.50;99.90;;;4.02;100.00;101152.50;5051725;28;20024;-79
2024/02/01 02:34:11;;;;;;;28.13;15.60;;;5.50;99.90;;;4.01;100.00;101162.03;5050714;28;20055;-79
2024/02/01 02:36:37;;;;;;;29.38;17.17;;;5.50;99.90;;;4.03;100.00;101155.06;5050817;28;20040;-79
2024/02/01 02:39:03;;;;;;;32.75;19.08;;;5.50;99.90;;;4.06;100.00;101159.38;5053095;28;20057;-79
2024/02/01 02:41:29;;;;;;;31.52;19.35;;;5.60;99.90;;;4.07;100.00;101148.94;5053036;28;20032;-78
2024/02/01 02:44:02;;;;;;;29.55;19.30;;;5.60;99.90;;;4.09;100.00;101149.78;5034999;28;20041;-79
2024/02/01 02:46:30;;;;;;;31.95;19.75;;;5.60;99.90;;;4.11;100.00;101149.75;5052632;28;20669;-79
2024/02/01 02:48:56;;;;;;;32.15;18.90;;;5.60;99.90;;;4.10;100.00;101140.19;5055077;28;20044;-79
2024/02/01 02:51:25;;;;;;;36.75;20.70;;;5.60;99.90;;;4.12;100.00;101143.66;5034940;28;20029;-78
2024/02/01 02:53:53;;;;;;;38.90;20.70;;;5.60;99.90;;;4.16;100.00;101154.91;5034709;28;20027;-79
2024/02/01 02:56:18;;;;;;;24.73;13.48;;;5.60;99.90;;;4.08;100.00;101145.47;5051920;28;20025;-79
2024/02/01 02:58:44;;;;;;;29.40;17.30;;;5.60;99.90;;;4.14;100.00;101136.69;5052793;28;20565;-79
2024/02/01 03:01:10;;;;;;;26.73;16.58;;;5.60;99.90;;;4.14;100.00;101136.69;5035949;28;20056;-79
2024/02/01 03:03:45;;;;;;;31.92;17.50;;;5.60;99.90;;;4.15;100.00;101143.63;5036267;28;20047;-79
2024/02/01 03:06:11;;;;;;;28.08;14.93;;;5.60;99.90;;;4.17;100.00;101154.00;5052885;28;20036;-78
2024/02/01 03:08:41;;;;;;;27.20;15.15;;;5.70;99.90;;;4.18;100.00;101140.97;5053728;28;20175;-80
2024/02/01 03:11:13;;;;;;;27.33;16.52;;;5.70;99.90;;;4.19;100.00;101155.75;5067000;28;20033;-80
2024/02/01 03:13:45;;;;;;;21.55;12.68;;;7.20;99.90;;;4.23;100.00;101154.81;5034653;28;20506;-79
2024/02/01 03:16:19;;;;;;;26.15;15.63;;;5.70;99.90;;;4.24;100.00;101153.94;5053164;28;20037;-79
2024/02/01 03:18:46;;;;;;;26.05;15.90;;;5.70;99.90;;;4.26;100.00;101152.16;5041793;28;20032;-79
2024/02/01 03:21:12;;;;;;;29.80;17.25;;;5.70;99.90;;;4.27;100.00;101148.66;5034648;28;20060;-79
2024/02/01 03:23:46;;;;;;;31.10;16.20;;;5.80;99.90;;;4.30;100.00;101155.59;5033788;28;20025;-79
2024/02/01 03:26:14;;;;;;;26.83;16.10;;;5.80;99.90;;;4.32;100.00;101162.50;5034794;28;20024;-78
2024/02/01 03:28:41;;;;;;;23.67;12.43;;;5.80;99.90;;;4.30;100.00;101155.59;5047925;28;20021;-80
2024/02/01 03:31:12;;;;;;;26.85;15.80;;;5.80;99.90;;;4.31;100.00;101149.50;5035726;28;20025;-78
2024/02/01 03:33:44;;;;;;;27.80;16.23;;;5.80;99.90;;;4.34;100.00;101156.41;5051346;28;20028;-79
2024/02/01 03:36:16;;;;;;;25.95;15.55;;;5.80;99.90;;;4.38;100.00;101158.09;5035019;28;20028;-79
2024/02/01 03:38:42;;;;;;;22.30;14.70;;;5.90;99.90;;;4.40;100.00;101154.56;5034887;28;20530;-79
2024/02/01 03:41:08;;;;;;;26.63;13.57;;;5.90;99.90;;;4.42;100.00;101146.72;5035864;28;20021;-80
2024/02/01 03:43:34;;;;;;;24.15;15.70;;;5.90;99.90;;;4.50;100.00;101168.34;5050905;28;20037;-79
2024/02/01 03:46:00;;;;;;;28.67;16.35;;;5.90;99.90;;;4.52;100.00;101169.19;5036316;28;20044;-79
2024/02/01 03:48:25;;;;;;;28.98;16.45;;;6.00;99.90;;;4.57;100.00;101174.34;5053467;28;20028;-79
2024/02/01 03:50:56;;;;;;;26.48;16.35;;;6.00;99.90;;;4.62;100.00;101165.56;5056322;28;20051;-79
2024/02/01 03:53:22;;;;;;;24.17;14.57;;;6.10;99.90;;;4.63;100.00;101151.63;5038084;28;20032;-79
2024/02/01 03:55:48;;;;;;;21.67;14.80;;;6.10;99.90;;;4.66;100.00;101169.81;5054908;28;20029;-79
2024/02/01 03:58:25;;;;;;;23.23;14.00;;;6.10;99.90;;;4.64;100.00;101168.97;5040178;28;20574;-80
2024/02/01 04:00:50;;;;;;;21.73;13.65;;;6.10;99.90;;;4.60;100.00;101177.78;5039354;28;20028;-79
2024/02/01 04:03:16;;;;;;;25.00;15.98;;;6.10;99.90;;;4.66;100.00;101187.22;5039358;28;20406;-80
2024/02/01 04:05:43;;;;;;;24.40;14.93;;;6.10;99.90;;;4.71;100.00;101194.13;5055705;28;20030;-79
2024/02/01 04:08:19;;;;;;;23.27;12.88;;;6.10;99.90;;;4.71;100.00;101188.03;5055699;28;20512;-79
2024/02/01 04:10:45;;;;;;;22.40;14.45;;;6.20;99.90;;;4.75;100.00;101192.31;5038786;28;20419;-80
2024/02/01 04:13:11;;;;;;;19.15;13.10;;;6.20;99.90;;;4.75;100.00;101188.84;5039224;28;20029;-79
2024/02/01 04:15:37;;;;;;;20.13;13.98;;;6.20;99.90;;;4.79;100.00;101214.00;5037559;28;20021;-79
2024/02/01 04:18:09;;;;;;;24.52;13.95;;;6.30;99.90;;;4.82;100.00;101203.53;5054321;28;20714;-79
2024/02/01 04:20:35;;;;;;;23.33;12.88;;;6.30;99.90;;;4.88;100.00;101203.41;5039086;28;20037;-79
2024/02/01 04:23:00;;;;;;;22.65;13.10;;;6.50;99.90;;;4.89;100.00;101206.00;5037809;28;20095;-79
2024/02/01 04:25:26;;;;;;;20.63;12.85;;;6.30;99.90;;;4.89;100.00;101216.44;5055192;28;20037;-80
2024/02/01 04:27:53;;;;;;;19.00;12.55;;;6.40;99.90;;;4.93;100.00;101212.91;5054532;28;20120;-79
2024/02/01 04:30:24;;;;;;;23.02;13.52;;;6.40;99.90;;;4.93;100.00;101206.84;5055454;28;20029;-79
2024/02/01 04:32:50;;;;;;;21.73;11.60;;;6.40;99.90;;;4.89;100.00;101218.19;5037991;28;20021;-79
2024/02/01 04:35:19;;;;;;;18.48;12.75;;;6.40;99.90;;;4.84;100.00;101217.44;5037084;28;20522;-79
2024/02/01 04:37:45;;;;;;;17.33;11.80;;;6.30;99.90;;;4.84;100.00;101214.81;5037396;28;20025;-79
2024/02/01 04:40:16;;;;;;;15.27;9.75;;;6.30;99.90;;;4.81;100.00;101217.44;5053920;28;20690;-79
2024/02/01 04:42:47;;;;;;;15.85;11.05;;;6.20;99.90;;;4.77;100.00;101218.38;5052162;28;20041;-79
2024/02/01 04:45:13;;;;;;;18.92;10.70;;;6.30;99.90;;;4.83;100.00;101228.72;5056215;28;20044;-79
2024/02/01 04:47:43;;;;;;;20.85;10.00;;;6.20;99.90;;;4.80;100.00;101232.25;5055107;28;20025;-79
2024/02/01 04:50:09;;;;;;;18.08;9.50;;;6.30;99.90;;;4.79;100.00;101234.88;5038400;28;20021;-79
2024/02/01 04:52:35;;;;;;;15.73;9.38;;;6.30;99.90;;;4.78;100.00;101239.25;5053634;28;20078;-79
2024/02/01 04:55:05;;;;;;;16.83;9.68;;;6.30;99.90;;;4.82;100.00;101238.31;5054794;28;20040;-79
2024/02/01 04:57:40;;;;;;;18.95;9.32;;;6.30;99.90;;;4.83;100.00;101247.84;5055809;28;20071;-79
2024/02/01 05:00:16;;;;;;;17.63;9.65;;;6.30;99.90;;;4.82;100.00;101259.19;5038919;28;20029;-78
2024/02/01 05:02:42;;;;;;;;;;;6.30;99.90;;;4.81;100.00;101264.41;5039294;28;20036;-79
2024/02/01 05:05:10;;;;;;;13.83;7.40;;;6.20;99.90;;;4.77;100.00;101267.94;5037705;28;20279;-79
2024/02/01 05:07:36;;;;;;;13.18;8.05;;;6.20;99.90;;;4.78;100.00;101264.47;5053358;28;20033;-79
2024/02/01 05:10:12;;;;;;;19.45;8.65;;;6.20;99.90;;;4.72;100.00;101268.88;5055076;28;20601;-79
2024/02/01 05:12:39;;;;;;;;;;;6.20;99.90;;;4.69;100.00;101271.53;5055689;28;20035;-79
2024/02/01 05:15:07;;;;;;;17.40;7.18;;;6.10;99.90;;;4.66;100.00;101266.34;5038069;28;19934;-79
2024/02/01 05:17:36;;;;;;;23.45;8.07;;;6.20;99.90;;;4.66;100.00;101270.69;5036847;28;20045;-79
2024/02/01 05:20:11;;;;;;;9.60;4.22;;;6.20;99.90;;;4.52;100.00;101276.13;5055653;28;20025;-78
2024/02/01 05:22:41;;;;;;;17.02;5.50;;;6.10;99.90;;;4.55;100.00;101283.88;5053546;28;20051;-79
2024/02/01 05:25:23;;;;;;;18.80;5.07;;;6.10;99.90;;;4.47;100.00;101283.13;5071828;28;20037;-79
2024/02/01 05:27:52;;;;;;;18.15;5.03;;;6.00;99.90;;;4.44;100.00;101285.78;5052871;28;20033;-78
2024/02/01 05:30:25;;;;;;;15.65;5.05;;;6.00;99.90;;;4.41;100.00;101286.69;5036166;28;20030;-79
2024/02/01 05:32:52;;;;;;;19.00;4.55;;;6.00;99.90;;;4.32;100.00;101287.66;5054963;28;20028;-79
2024/02/01 05:35:28;;;;;;;21.58;4.80;;;5.90;99.90;;;4.31;100.00;101285.06;5037530;28;20028;-79
2024/02/01 05:38:00;;;;;;;22.08;4.57;;;5.90;99.90;;;4.30;100.00;101271.16;5037237;28;20037;-79
2024/02/01 05:40:29;;;;;;;23.20;4.38;;;5.90;99.90;;;4.27;100.00;101276.41;5037059;28;20024;-79
2024/02/01 05:42:58;;;;;;;27.42;5.18;;;5.80;99.90;;;4.22;100.00;101275.59;5044257;28;20025;-79
2024/02/01 05:45:27;;;;;;;20.10;4.20;;;5.80;99.90;;;4.19;100.00;101291.28;5053206;28;20063;-79
2024/02/01 05:47:54;;;;;;;24.20;4.88;;;5.70;99.90;;;4.16;100.00;101286.09;5036037;28;20037;-79
2024/02/01 05:50:25;;;;;;;22.48;4.18;;;5.70;99.90;;;4.14;100.00;101282.63;5054549;28;20037;-78
2024/02/01 05:52:50;;;;;;;23.23;3.88;;;5.60;99.90;;;4.06;100.00;101295.75;5052215;28;20534;-79
2024/02/01 05:55:16;;;;;;;23.85;4.53;;;5.60;99.90;;;3.99;100.00;101304.50;5036202;28;20055;-79
2024/02/01 05:57:43;;;;;;;26.95;4.32;;;5.60;99.90;;;3.96;100.00;101304.56;5052717;28;20091;-78
2024/02/01 06:00:10;;;;;;;21.25;3.67;;;5.50;99.90;;;3.92;100.00;101313.28;5052101;28;20522;-79
2024/02/01 06:02:39;;;;;;;23.25;3.55;;;5.50;99.90;;;3.91;100.00;101316.78;5050115;28;20053;-79
2024/02/01 06:05:05;;;;;;;19.75;3.80;;;5.40;99.90;;;3.80;100.00;101324.69;5051231;28;20087;-79
2024/02/01 06:07:31;;;;;;;21.20;3.25;;;5.40;99.90;;;3.81;100.00;101330.75;5049404;28;20063;-79
2024/02/01 06:09:59;;;;;;;30.33;3.75;;;5.40;99.90;;;3.77;100.00;101323.84;5052475;28;20033;-80
2024/02/01 06:12:27;;;;;;;34.67;4.38;;;5.30;99.90;;;3.76;100.00;101333.41;5034010;28;20041;-79
2024/02/01 06:14:56;;;;;;;22.50;3.25;;;5.30;99.90;;;3.72;100.00;101342.13;5035178;28;20033;-79
2024/02/01 06:17:21;;;;;;;39.20;3.28;;;5.30;99.90;;;3.65;100.00;101348.22;5033683;28;20140;-80
2024/02/01 06:19:50;;;;;;;28.42;3.60;;;5.20;99.90;;;3.63;100.00;101350.00;5051184;28;20024;-79
2024/02/01 06:22:21;;;;;;;39.60;3.95;;;5.20;99.90;;;3.61;100.00;101352.63;5049631;28;20029;-79
2024/02/01 06:24:48;;;;;;;29.63;4.15;;;5.20;99.90;;;3.64;100.00;101356.94;5049608;28;20040;-79
2024/02/01 06:27:14;;;;;;;21.05;2.88;;;5.20;99.90;;;3.59;100.00;101361.31;5032309;28;20113;-79
2024/02/01 06:29:40;;;;;;;36.22;4.82;;;5.10;99.90;;;3.58;100.00;101367.41;5048288;28;20040;-78
2024/02/01 06:32:14;;;;;;;33.33;3.58;;;5.10;99.90;;;3.54;100.00;101374.34;5052106;28;20103;-78
2024/02/01 06:34:40;;;;;;;27.77;3.50;;;5.10;99.90;;;3.45;100.00;101366.63;5034053;28;20036;-79
2024/02/01 06:37:08;;;;;;;28.92;3.70;;;5.00;99.90;;;3.45;100.00;101370.06;5050745;28;20025;-79
2024/02/01 06:42:23;;;;;;;27.65;3.33;;;5.00;99.90;;;3.47;100.00;101385.69;5049304;28;20044;-79
2024/02/01 06:45:08;;;;;;;30.83;3.47;;;5.00;99.90;;;3.46;99.72;101387.44;5050001;28;20037;-78
2024/02/01 06:47:38;;;;;;;27.58;3.35;;;5.00;99.90;;;3.45;99.84;101392.66;5048922;28;20396;-78
2024/02/01 06:50:16;;;;;;;24.75;3.22;;;4.90;99.90;;;3.41;99.50;101397.03;5031348;28;20604;-77
2024/02/01 06:52:56;;;;;;;38.63;3.63;;;4.90;99.90;;;3.40;99.83;101395.28;5042299;28;20048;-78
2024/02/01 06:55:43;;;;;;;24.60;3.47;;;4.90;99.90;;;3.44;99.95;101399.59;5033984;28;20017;-77
2024/02/01 06:58:17;;;;;;;27.58;3.42;;;4.90;99.90;;;3.46;99.82;101395.25;5032256;28;20033;-79
2024/02/01 07:03:32;;;;;;;31.33;2.92;;;4.90;99.90;;;3.40;99.40;101392.69;5047672;28;20028;-79
2024/02/01 07:06:06;;;;;;;26.75;3.67;;;4.80;99.90;;;3.34;99.58;101390.13;5048354;28;20036;-79
2024/02/01 07:17:05;;;;;;;27.42;4.15;;;4.80;99.90;;;3.31;100.00;101403.16;5028007;28;20021;-79
2024/02/01 07:22:00;;;;;;;30.88;4.22;;;4.80;99.90;;;3.34;100.00;101407.47;5052251;28;20044;-79
2024/02/01 07:24:59;;;;;;;20.95;2.80;;;4.70;99.90;;;3.33;100.00;101410.97;5053475;28;20470;-79
2024/02/01 07:58:07;;;;;;;28.70;3.95;;;4.90;99.90;;;3.44;100.00;101430.84;4998657;28;20053;-78
2024/02/01 08:00:33;;;;;;;34.08;4.22;;;4.90;99.90;;;3.51;100.00;101430.81;4992638;28;20810;-79
2024/02/01 08:03:04;;;;;;;29.88;3.30;;;5.00;99.90;;;3.55;100.00;101442.94;5016127;28;20104;-79
2024/02/01 08:08:20;;;;;;;37.17;3.75;;;5.10;99.90;;;3.68;100.00;101434.19;5018631;28;20087;-77
2024/02/01 08:10:46;;;;;;;24.00;3.63;;;5.10;99.90;;;3.69;100.00;101441.09;4990737;28;20034;-79
2024/02/01 08:13:18;;;;;;;34.28;3.95;;;5.20;99.90;;;3.73;100.00;101442.81;4990918;28;20034;-78
2024/02/01 08:15:44;;;;;;;40.88;3.70;;;5.20;99.90;;;3.79;100.00;101442.78;5022520;28;20041;-78
2024/02/01 08:18:10;;;;;;;29.60;3.33;;;5.30;99.90;;;3.82;100.00;101445.38;4992324;28;20080;-79
2024/02/01 08:20:40;;;;;;;33.95;3.75;;;5.30;99.90;;;3.86;100.00;101443.59;5025714;28;20034;-79
2024/02/01 08:23:15;;;;;;;39.55;3.63;;;5.30;99.90;;;3.93;100.00;101449.63;4996280;28;20042;-79
2024/02/01 08:29:35;;;;;;;29.33;3.67;;;5.40;99.90;;;3.98;100.00;101451.31;5087178;22;20049;-87
2024/02/01 08:32:19;;;;;;;;;;;;;;;;;;;;;
2024/02/01 08:35:00;;;;;;;43.25;4.40;;;;;;;4.04;100.00;101453.88;5054744;28;20116;-86
2024/02/01 08:37:43;;;;;;;31.23;3.75;;;;;;;4.06;100.00;101446.03;5133026;23;20506;-87
2024/02/01 08:40:22;;;;;;;31.35;3.63;;;;;;;4.13;99.85;101450.34;5072356;28;20059;-86
2024/02/01 08:43:01;;;;;;;29.83;2.97;;;5.60;99.90;;;4.15;99.51;101430.34;5076385;28;20028;-85
2024/02/01 08:46:31;;;;;;;34.28;3.55;;;5.60;99.90;;;4.19;98.95;101450.28;5063882;28;20032;-87
2024/02/01 08:48:57;;;;;;;31.98;3.85;;;5.60;99.90;;;4.26;98.91;101458.91;5072288;28;20044;-86
2024/02/01 08:51:51;;;;;;;34.08;3.85;;;;;;;4.29;98.40;101470.16;5055297;28;20021;-86
2024/02/01 08:54:29;;;;;;;33.50;3.00;;;;;;;4.32;98.44;101462.34;5078370;28;20032;-87
2024/02/01 08:57:23;;;;;;;35.58;4.30;;;;;;;4.40;98.04;101469.22;5106239;23;20124;-86
2024/02/01 08:59:52;;;;;;;36.60;4.20;;;;;;;4.44;97.62;101468.31;5053507;28;20556;-86
2024/02/01 09:03:14;;;;;;;;;;;;;;;;;;;;;
2024/02/01 09:08:52;;;;;;;34.15;3.47;;;;;;;4.56;96.44;101478.63;5005650;28;20029;-85
2024/02/01 09:11:31;;;;;;;37.85;3.72;;;;;;;4.58;95.77;101478.59;4997438;28;20071;-86
2024/02/01 09:14:02;;;;;;;27.80;3.33;;;;;;;4.56;95.12;101485.56;4986889;28;20033;-86
2024/02/01 09:16:34;;;;;;;37.45;4.32;;;;;;;4.62;95.12;101495.94;5037093;22;20052;-86
2024/02/01 09:19:01;;;;;;;32.50;4.68;;;6.10;99.90;;;4.64;94.77;101486.38;5053494;28;20128;-84
2024/02/01 09:21:39;;;;;;;29.63;3.72;;;6.10;99.90;;;4.64;94.38;101487.22;5033823;28;20090;-84
2024/02/01 09:24:09;;;;;;;30.30;4.63;;;;;;;4.80;94.28;101495.78;5036593;28;20551;-85
2024/02/01 09:26:44;;;;;;;39.20;5.18;;;;;;;4.88;94.20;101486.13;5046889;28;20045;-85
2024/02/01 09:32:39;;;;;;;41.40;4.45;;;;;;;5.03;92.58;101497.25;5022603;28;20080;-84
2024/02/01 09:35:36;;;;;;;49.08;4.65;;;6.50;99.90;;;5.04;92.33;101507.69;5009763;28;20033;-85
2024/02/01 09:38:01;;;;;;;13.77;2.35;;;6.40;99.90;;;4.88;91.79;101496.56;5025097;28;20042;-84
2024/02/01 09:40:51;;;;;;;46.03;5.38;;;6.50;99.90;;;5.02;91.97;101492.94;4971966;28;20026;-86
2024/02/01 09:43:53;;;;;;;36.90;4.18;;;6.20;99.90;;;5.03;91.39;101500.75;4917985;29;20137;-85
2024/02/01 09:46:57;;;;;;;37.45;3.97;;;6.60;99.90;;;5.13;90.82;101504.97;4920581;29;20047;-87
2024/02/01 09:49:24;;;;;;;40.15;4.07;;;;;;;5.10;90.90;101506.78;4859650;29;20501;-84
2024/02/01 09:52:00;;;;;;;35.42;4.07;;;6.70;99.90;;;5.24;90.89;101514.44;4857802;29;20049;-85
2024/02/01 09:54:29;;;;;;;30.77;3.67;;;;;;;5.21;90.90;101509.25;4856940;29;20049;-85
2024/02/01 09:57:22;;;;;;;33.92;4.30;;;;;;;5.19;90.28;101516.25;4858734;29;20054;-85
2024/02/01 10:00:23;;;;;;;39.83;4.00;;;6.70;99.90;;;5.21;89.89;101510.13;4860423;29;20041;-85
2024/02/01 10:06:12;;;;;;;40.65;4.45;;;;;;;5.20;89.91;101513.59;4855105;29;20081;-84
2024/02/01 10:09:14;;;;;;;;;;;;;;;;;;;;;
2024/02/01 10:12:03;;;;;;;38.88;4.65;;;;;;;5.25;89.99;101516.19;4876069;29;20052;-87
2024/02/01 10:45:23;;;;;;;32.20;4.28;;;7.10;99.90;;;5.56;86.55;101511.41;5048942;28;20076;-86
2024/02/01 11:02:11;;;;;;;36.47;4.97;;;;;;;5.57;86.41;101531.41;5038910;28;20117;-86
2024/02/01 11:21:11;;;;;;;32.97;4.32;;;;;;;5.85;85.40;101526.72;5051165;28;20115;-85
2024/02/01 11:31:21;;;;;;;33.88;4.20;;;7.40;99.90;;;5.86;84.77;101536.28;5033323;28;20041;-86
2024/02/01 11:34:12;;;;;;;36.97;4.30;;;7.40;99.90;;;5.83;84.46;101536.31;5035919;28;20026;-86
2024/02/01 11:41:46;;;;;;;12.70;2.13;;;7.40;99.90;;;5.73;84.04;101546.03;5005472;28;20113;-86
2024/02/01 11:45:21;;;;;;;25.77;3.40;;;7.40;99.90;;;5.88;83.75;101547.56;4961609;28;20473;-85
2024/02/01 11:48:22;;;;;;;29.10;3.92;;;7.40;99.90;;;5.99;84.04;101530.91;4928066;29;20051;-86
2024/02/01 11:51:40;;;;;;;38.58;4.78;;;7.50;99.90;;;6.15;83.61;101540.22;4911826;29;20042;-86
2024/02/01 11:54:45;;;;;;;;;;;;;;;;;;;;;
2024/02/01 11:58:01;;;;;;;35.05;5.20;;;7.70;99.90;;;6.22;82.35;101554.06;5039972;23;19935;-86
2024/02/01 12:00:55;;;;;;;43.67;4.30;;;7.70;99.90;;;6.31;82.29;101556.56;5042318;28;20521;-86
2024/02/01 12:03:32;;;;;;;33.38;4.88;;;;;;;6.22;82.10;101560.19;5023655;28;20021;-86
2024/02/01 12:06:01;;;;;;;21.42;4.05;;;7.70;99.90;;;6.07;81.08;101549.94;5036378;28;20127;-87
2024/02/01 12:09:40;;;;;;;16.50;3.15;;;7.70;99.90;;;6.22;81.31;101533.16;5027544;28;20033;-85
2024/02/01 12:12:06;;;;;;;28.08;3.83;;;;;;;6.20;80.85;101541.03;5034253;28;20033;-86
2024/02/01 12:18:14;;;;;;;26.90;3.08;;;;;;;6.45;80.32;101548.50;5088634;23;20516;-89
2024/02/01 12:24:54;;;;;;;24.02;3.22;;;7.90;99.90;;;6.35;80.31;101547.78;5032467;28;20079;-85
2024/02/01 12:27:32;;;;;;;22.10;5.03;;;;;;;6.29;79.59;101546.13;5009715;28;20049;-86
2024/02/01 12:30:32;;;;;;;42.42;4.63;;;;;;;6.18;79.96;101553.28;5024612;28;20527;-87
2024/02/01 12:33:13;;;;;;;29.00;3.75;;;7.80;99.90;;;6.20;78.93;101568.91;5014546;28;20123;-85
2024/02/01 12:36:19;;;;;;;16.70;2.65;;;7.70;99.90;;;6.13;78.62;101574.28;5004112;28;20127;-86
2024/02/01 12:42:42;;;;;;;16.70;2.58;;;7.60;99.90;;;6.00;79.05;101556.16;4948939;29;20046;-88
2024/02/01 12:48:23;;;;;;;26.20;4.28;;;;;;;6.18;78.44;101579.44;4873270;29;20610;-87
2024/02/01 12:54:12;;;;;;;32.20;4.90;;;7.60;99.90;;;6.03;78.68;101585.75;4874490;29;20420;-86
2024/02/01 12:57:28;;;;;;;36.97;5.43;;;7.60;99.90;;;5.93;78.30;101587.56;4947501;23;20048;-87
2024/02/01 13:00:23;;;;;;;27.65;4.05;;;;;;;6.03;78.25;101584.88;5073670;28;20067;-86
2024/02/01 13:03:01;;;;;;;33.13;4.03;;;7.70;99.90;;;6.04;78.96;101578.75;5074558;28;20517;-88
2024/02/01 13:05:43;;;;;;;19.45;2.83;;;;;;;6.05;78.61;101590.97;5058630;28;20039;-86
2024/02/01 13:09:28;;;;;;;39.00;4.78;;;7.60;99.90;;;6.00;78.42;101577.06;5054678;28;20021;-86
2024/02/01 13:12:18;;;;;;;39.65;4.28;;;7.60;99.90;;;6.11;78.14;101583.00;4993014;28;20463;-86
2024/02/01 13:14:45;;;;;;;23.42;3.17;;;;;;;6.01;78.49;101586.66;4996163;28;20077;-86
2024/02/01 13:17:41;;;;;;;26.05;3.63;;;;;;;5.97;78.62;101598.88;5038005;22;20033;-87
2024/02/01 13:20:26;;;;;;;18.35;2.72;;;7.50;99.90;;;5.90;78.12;101566.72;5050033;28;20542;-89
2024/02/01 13:26:13;;;;;;;25.77;4.72;;;;;;;5.87;78.60;101592.88;5053541;28;20036;-87
2024/02/01 13:31:47;;;;;;;;;;;;;;;;;;;;;
2024/02/01 13:34:16;;;;;;;30.27;4.30;;;;;;;5.75;77.82;101596.53;5037163;28;20032;-86
2024/02/01 13:36:55;;;;;;;38.58;5.10;;;;;;;5.79;78.49;101613.03;5090482;22;20080;-86
2024/02/01 13:39:34;;;;;;;18.35;2.80;;;7.40;99.90;;;5.79;78.60;101601.69;5071527;28;20029;-87
2024/02/01 13:43:01;;;;;;;21.23;3.22;;;7.50;99.90;;;5.93;78.38;101618.94;5054694;28;20027;-86
2024/02/01 13:45:42;;;;;;;18.70;3.28;;;;;;;5.89;77.52;101622.47;4973335;28;20038;-86
2024/02/01 13:48:40;;;;;;;23.38;3.35;;;7.50;99.90;;;6.03;77.62;101611.03;4957322;28;20186;-86
2024/02/01 13:52:02;;;;;;;26.85;3.88;;;7.60;99.90;;;6.07;77.76;101617.91;4943120;28;20027;-86